الصفحة الرئيسية
METAR-TAF:

METAR-TAF

مطار :

مطار دبي الدولي

إمارة دبي, الإمارات العربية المتحدة

دائرة عرض: 25-15-10N, خط طول: 055-21-52E, ارتفاع: 8 متر

مراقبة الطقس الحالي

تاريخ ووقت الإصدار 36 دقيقة قبل الساعة 00:00UTC
ريح 6 عقدةمن اتجاهات متغيرة
درجة الحرارة 35°درجة مئوية
الرطوبة 67%
ضغط 997 hPa
الرؤية: 8000 متر

METAR: OMDB 160000Z VRB06KT 8000 NSC 35/28 Q0997 NOSIG

زمن: 04:36 (00:36 UTC)

توقعات

تاريخ ووقت الإصدار 1ساعة و 33 دقيقة قبل الساعة 23:03UTC
التوقعات صالحة من16 الساعة 00 UTC إلى 17 الساعة 06 UTC
ريح 5 عقدة من الشرق
الرؤية: 8000 متر
نظرية الاحتمالات 30%
من 16 الساعة 00 UTC إلى 16 الساعة 04 UTC
الرؤية: 4000 متر
العجاج
أصبح
من 16 الساعة 08 UTC إلى 16 الساعة 10 UTC
ريح 14 عقدة من الشمال/الشمال الغربي
أصبح
من 16 الساعة 16 UTC إلى 16 الساعة 18 UTC
ريح 5 عقدة من الشمال الشرقي

TAF: OMDB 152303Z 1600/1706 08005KT 8000 NSC PROB30 1600/1604 4000 HZ BECMG 1608/1610 33014KT BECMG 1616/1618 05005KT

أرصاد الطقس والتوقعات من أكثر من 4000 مطار (تقارير الطقس للمطار METAR والتنبؤ بالطقس بالمطارTAF).

المحطات المتاحة هي النقط الصفراء والحمراء على الخريطة.

حرك المؤشر فوق النقطة لمعرفة اسم المحطة.

ثم انقر لمعرفة أرصاد وتوقعات الطقس.

لتغيير الخارطة: اضغط على الأزرار الخضراء مع رمز الصليب الأسود للتكبير. على الزر الأخضر مع شرطة للتصغير، أو على الأسهم الخضراء للخرائط المجاورة.


METAR-TAF: